Time;durP1;ratioP1;P1;durP2;ratioP2;P2;SDS_P1;SDS_P2;PMS_P1;PMS_P2;Temp;Humidity;BMP_temperature;BMP_pressure;BME280_temperature;BME280_humidity;BME280_pressure;Samples;Min_cycle;Max_cycle;Signal;HPM_P1;HPM_P2
2021/04/29 00:00:39;;;;;;;8.48;7.68;;;12.30;1.00;;;;;;5053037;28;20663;-61
2021/04/29 00:03:05;;;;;;;9.83;8.03;;;12.30;1.00;;;;;;5052779;28;20196;-61
2021/04/29 00:05:30;;;;;;;9.83;8.20;;;12.50;1.00;;;;;;5052724;28;20189;-61
2021/04/29 00:07:56;;;;;;;9.47;8.10;;;12.40;1.00;;;;;;5052879;28;20215;-61
2021/04/29 00:10:24;;;;;;;11.40;8.40;;;12.60;1.00;;;;;;5053525;28;20202;-63
2021/04/29 00:12:50;;;;;;;12.65;9.23;;;12.60;1.00;;;;;;5052651;28;20518;-62
2021/04/29 00:15:16;;;;;;;10.70;9.23;;;12.70;1.00;;;;;;5052668;28;20571;-63
2021/04/29 00:17:43;;;;;;;9.90;8.88;;;12.70;1.00;;;;;;5053024;28;20480;-63
2021/04/29 00:20:12;;;;;;;12.00;9.68;;;12.80;1.00;;;;;;5052827;28;20245;-63
2021/04/29 00:22:37;;;;;;;11.20;9.73;;;12.70;1.00;;;;;;5052657;28;20185;-62
2021/04/29 00:25:05;;;;;;;13.93;9.40;;;12.70;1.00;;;;;;5052867;28;20192;-63
2021/04/29 00:27:31;;;;;;;10.43;9.10;;;12.60;1.00;;;;;;5052840;28;20216;-63
2021/04/29 00:29:56;;;;;;;12.40;9.90;;;12.60;17.10;;;;;;5052810;28;20208;-63
2021/04/29 00:32:22;;;;;;;13.90;9.60;;;12.70;27.00;;;;;;5052639;28;20227;-63
2021/04/29 00:34:47;;;;;;;10.10;9.17;;;12.50;37.00;;;;;;5052299;28;20184;-64
2021/04/29 00:37:13;;;;;;;13.00;9.80;;;12.50;36.30;;;;;;5052680;28;20174;-63
2021/04/29 00:39:38;;;;;;;11.27;9.40;;;12.50;99.90;;;;;;5051890;28;20238;-63
2021/04/29 00:42:04;;;;;;;14.60;9.77;;;12.50;1.00;;;;;;5052733;28;20199;-63
2021/04/29 00:44:30;;;;;;;11.53;10.17;;;12.40;50.90;;;;;;5052081;28;20177;-63
2021/04/29 00:46:58;;;;;;;18.27;11.70;;;12.40;1.00;;;;;;5052815;28;20230;-63
2021/04/29 00:49:23;;;;;;;14.18;11.48;;;12.20;99.90;;;;;;5054531;28;20514;-63
2021/04/29 00:51:49;;;;;;;12.73;11.20;;;11.90;1.00;;;;;;5056116;28;20169;-63
2021/04/29 00:54:14;;;;;;;15.23;11.03;;;11.90;99.90;;;;;;5055615;28;20177;-62
2021/04/29 00:56:40;;;;;;;16.07;11.50;;;11.70;1.00;;;;;;5055930;28;20247;-63
2021/04/29 00:59:05;;;;;;;13.97;11.17;;;11.60;99.90;;;;;;5055826;28;20250;-63
2021/04/29 01:01:33;;;;;;;15.57;11.70;;;11.60;1.00;;;;;;5056005;28;20196;-63
2021/04/29 01:04:44;;;;;;;13.95;11.15;;;11.30;99.90;;;;;;5055767;28;20173;-63
2021/04/29 01:07:12;;;;;;;15.13;11.70;;;11.00;99.90;;;;;;5014104;28;20237;-63
2021/04/29 01:09:47;;;;;;;14.77;11.85;;;10.80;99.90;;;;;;5050555;28;20207;-62
2021/04/29 01:12:19;;;;;;;13.77;11.43;;;10.60;87.70;;;;;;5055875;28;20180;-62
2021/04/29 01:14:46;;;;;;;16.05;12.35;;;10.40;99.90;;;;;;5055503;28;20162;-62
2021/04/29 01:17:13;;;;;;;16.80;11.85;;;10.40;99.90;;;;;;5055736;28;20176;-62
2021/04/29 01:19:45;;;;;;;18.08;13.48;;;10.30;1.00;;;;;;5056256;28;20502;-61
2021/04/29 01:22:12;;;;;;;14.68;13.05;;;10.40;1.00;;;;;;5055855;28;20177;-62
2021/04/29 01:24:57;;;;;;;13.60;11.75;;;10.30;99.90;;;;;;5055186;28;20177;-62
2021/04/29 01:27:24;;;;;;;16.70;12.88;;;10.40;1.00;;;;;;5055601;28;20204;-62
2021/04/29 01:29:51;;;;;;;17.42;12.88;;;10.50;1.00;;;;;;5055203;28;20179;-62
2021/04/29 01:32:17;;;;;;;18.50;15.10;;;10.80;1.00;;;;;;5054992;28;20176;-61
2021/04/29 01:34:44;;;;;;;21.00;13.35;;;10.60;1.00;;;;;;5053891;28;20169;-60
2021/04/29 01:37:10;;;;;;;15.32;12.35;;;10.70;1.00;;;;;;5055431;28;20245;-61
2021/04/29 01:39:37;;;;;;;14.07;12.45;;;10.80;1.00;;;;;;5055008;28;20181;-61
2021/04/29 01:42:06;;;;;;;17.15;11.60;;;10.30;1.00;;;;;;5055337;28;20185;-60
2021/04/29 01:44:32;;;;;;;12.13;10.93;;;9.70;1.00;;;;;;5054903;28;20249;-60
2021/04/29 01:47:00;;;;;;;11.50;10.10;;;9.30;99.90;;;;;;5054204;28;20207;-60
2021/04/29 01:49:27;;;;;;;12.10;10.77;;;9.00;99.90;;;;;;5054950;28;20449;-60
2021/04/29 01:51:53;;;;;;;12.27;10.95;;;9.00;99.90;;;;;;5055018;28;20284;-60
2021/04/29 01:54:21;;;;;;;16.03;12.90;;;8.80;99.90;;;;;;5054607;28;20612;-60
2021/04/29 01:56:47;;;;;;;14.20;11.50;;;9.10;99.90;;;;;;5054790;28;20186;-60
2021/04/29 01:59:14;;;;;;;17.73;13.10;;;9.30;99.90;;;;;;5054902;28;20485;-60
2021/04/29 02:01:42;;;;;;;17.90;13.52;;;9.40;99.90;;;;;;5053844;28;20241;-60
2021/04/29 02:04:08;;;;;;;16.55;13.25;;;9.40;99.90;;;;;;5054412;28;20263;-60
2021/04/29 02:06:35;;;;;;;16.98;12.45;;;9.50;99.90;;;;;;5054823;28;20664;-60
2021/04/29 02:09:01;;;;;;;15.40;13.05;;;9.40;99.90;;;;;;5054649;28;20197;-60
2021/04/29 02:11:31;;;;;;;16.20;12.23;;;9.50;99.90;;;;;;5054587;28;20248;-60
2021/04/29 02:13:58;;;;;;;14.85;11.30;;;9.40;99.90;;;;;;5053647;28;20902;-60
2021/04/29 02:16:39;;;;;;;14.50;13.10;;;9.30;99.90;;;;;;5054487;28;20188;-61
2021/04/29 02:19:07;;;;;;;14.30;11.35;;;9.30;99.90;;;;;;5054728;28;20195;-61
2021/04/29 02:21:34;;;;;;;13.25;11.55;;;9.30;99.90;;;;;;5054383;28;20182;-61
2021/04/29 02:24:03;;;;;;;15.48;12.48;;;9.40;99.90;;;;;;5054117;28;20176;-61
2021/04/29 02:26:32;;;;;;;14.00;12.60;;;9.40;99.90;;;;;;5053953;28;20218;-62
2021/04/29 02:28:58;;;;;;;15.20;11.98;;;9.50;99.90;;;;;;5054432;28;20178;-61
2021/04/29 02:31:24;;;;;;;14.30;12.30;;;9.60;66.20;;;;;;5055046;28;20176;-61
2021/04/29 02:33:51;;;;;;;17.52;12.57;;;9.60;6.10;;;;;;5053837;28;20876;-61
2021/04/29 02:36:17;;;;;;;14.77;13.20;;;9.70;1.00;;;;;;5054341;28;20199;-62
2021/04/29 02:38:47;;;;;;;16.30;11.73;;;9.60;1.00;;;;;;5054364;28;20547;-62
2021/04/29 02:41:13;;;;;;;14.93;12.38;;;9.50;1.00;;;;;;5053114;28;20254;-62
2021/04/29 02:43:39;;;;;;;14.18;12.70;;;9.40;1.00;;;;;;5053765;28;20528;-61
2021/04/29 02:46:04;;;;;;;13.23;11.70;;;9.30;1.00;;;;;;5053583;28;20169;-61
2021/04/29 02:48:30;;;;;;;14.10;12.00;;;9.40;1.00;;;;;;5053618;28;20462;-60
2021/04/29 02:51:01;;;;;;;14.63;12.60;;;9.70;1.00;;;;;;5053095;28;20182;-61
2021/04/29 02:53:26;;;;;;;17.38;11.90;;;9.60;1.00;;;;;;5053550;28;20418;-61
2021/04/29 02:55:55;;;;;;;13.87;11.93;;;9.60;1.00;;;;;;5053413;28;20591;-60
2021/04/29 02:58:20;;;;;;;14.88;13.15;;;9.60;1.00;;;;;;5053730;28;20188;-61
2021/04/29 03:00:47;;;;;;;15.97;12.87;;;9.50;1.00;;;;;;5053627;28;20185;-61
2021/04/29 03:03:13;;;;;;;15.25;12.15;;;9.60;1.00;;;;;;5052311;28;20192;-61
2021/04/29 03:05:39;;;;;;;17.00;12.23;;;9.60;1.00;;;;;;5035763;28;20274;-61
2021/04/29 03:08:06;;;;;;;14.73;13.23;;;9.60;1.00;;;;;;5053198;28;20467;-61
2021/04/29 03:10:32;;;;;;;14.35;12.80;;;9.80;1.00;;;;;;5053290;28;20671;-61
2021/04/29 03:12:58;;;;;;;15.15;12.10;;;10.10;1.00;;;;;;5053267;28;20202;-61
2021/04/29 03:15:24;;;;;;;17.70;12.07;;;10.10;1.00;;;;;;5052906;28;20605;-61
2021/04/29 03:17:49;;;;;;;14.17;11.90;;;10.10;1.00;;;;;;5053463;28;20180;-61
2021/04/29 03:20:15;;;;;;;16.70;12.33;;;10.20;1.00;;;;;;5053425;28;20674;-61
2021/04/29 03:22:41;;;;;;;17.00;11.90;;;10.20;1.00;;;;;;5053021;28;20195;-61
2021/04/29 03:25:07;;;;;;;13.03;11.23;;;10.10;1.00;;;;;;5052799;28;20222;-61
2021/04/29 03:27:32;;;;;;;18.02;12.02;;;10.00;1.00;;;;;;5053229;28;20243;-61
2021/04/29 03:29:58;;;;;;;13.10;11.80;;;10.00;1.00;;;;;;5052993;28;20215;-61
2021/04/29 03:32:24;;;;;;;15.77;11.37;;;9.90;1.00;;;;;;5052882;28;20667;-61
2021/04/29 03:34:50;;;;;;;13.13;11.27;;;9.90;1.00;;;;;;5052563;28;20194;-61
2021/04/29 03:37:16;;;;;;;15.97;12.77;;;9.90;1.00;;;;;;5052861;28;20185;-61
2021/04/29 03:39:42;;;;;;;11.57;10.37;;;9.90;1.00;;;;;;5052629;28;20418;-61
2021/04/29 03:42:08;;;;;;;13.18;11.63;;;10.00;1.00;;;;;;5052690;28;20180;-61
2021/04/29 03:44:34;;;;;;;14.63;12.33;;;10.00;1.00;;;;;;5052497;28;20562;-61
2021/04/29 03:47:01;;;;;;;16.10;11.55;;;10.20;1.00;;;;;;5052669;28;20632;-61
2021/04/29 03:49:26;;;;;;;13.50;11.20;;;10.30;1.00;;;;;;5052566;28;20204;-61
2021/04/29 03:51:52;;;;;;;16.80;11.67;;;10.20;1.00;;;;;;5052615;28;20576;-61
2021/04/29 03:54:19;;;;;;;14.27;11.73;;;10.20;1.00;;;;;;5052094;28;20176;-61
2021/04/29 03:56:54;;;;;;;13.45;12.15;;;9.90;1.00;;;;;;5050308;28;20181;-61
2021/04/29 03:59:21;;;;;;;11.95;10.75;;;9.90;1.00;;;;;;5052558;28;20628;-61
2021/04/29 04:01:46;;;;;;;14.38;11.07;;;10.10;1.00;;;;;;5052560;28;20181;-61
2021/04/29 04:04:12;;;;;;;13.63;11.50;;;10.20;1.00;;;;;;5051937;28;20266;-61
2021/04/29 04:06:38;;;;;;;13.97;11.10;;;9.90;1.00;;;;;;5052402;28;20212;-61
2021/04/29 04:09:04;;;;;;;12.37;11.10;;;9.90;1.00;;;;;;5052222;28;20192;-61
2021/04/29 04:11:29;;;;;;;16.30;11.10;;;9.60;1.00;;;;;;5052454;28;20524;-61
2021/04/29 04:13:56;;;;;;;12.13;10.30;;;9.70;1.00;;;;;;5051787;28;20176;-61
2021/04/29 04:16:23;;;;;;;15.40;12.60;;;9.80;1.00;;;;;;5052213;28;20524;-61
2021/04/29 04:18:48;;;;;;;15.48;12.48;;;9.70;1.00;;;;;;5052226;28;20334;-61
2021/04/29 04:21:17;;;;;;;12.50;11.20;;;9.80;1.00;;;;;;5052581;28;20255;-61
2021/04/29 04:23:42;;;;;;;13.20;11.85;;;10.00;1.00;;;;;;5052377;28;20663;-61
2021/04/29 04:26:08;;;;;;;12.70;10.60;;;9.90;1.00;;;;;;5056419;28;20271;-61
2021/04/29 04:28:34;;;;;;;14.07;11.40;;;10.00;1.00;;;;;;5056306;28;20676;-61
2021/04/29 04:30:59;;;;;;;12.87;11.67;;;10.00;1.00;;;;;;5055004;28;20180;-61
2021/04/29 04:33:25;;;;;;;14.70;12.17;;;10.10;1.00;;;;;;5056006;28;20199;-61
2021/04/29 04:35:50;;;;;;;13.33;11.37;;;10.30;1.00;;;;;;5055719;28;20188;-61
2021/04/29 04:38:16;;;;;;;13.70;12.07;;;10.00;1.00;;;;;;5056000;28;20199;-61
2021/04/29 04:40:41;;;;;;;14.67;12.90;;;10.10;1.00;;;;;;5055965;28;20220;-61
2021/04/29 04:43:07;;;;;;;16.53;12.43;;;10.00;1.00;;;;;;5055828;28;20597;-61
2021/04/29 04:45:32;;;;;;;13.23;11.90;;;10.00;1.00;;;;;;5055318;28;20211;-61
2021/04/29 04:47:58;;;;;;;14.70;13.20;;;10.10;1.00;;;;;;5054958;28;20602;-60
2021/04/29 04:50:23;;;;;;;17.40;12.97;;;10.00;1.00;;;;;;5056230;28;20229;-61
2021/04/29 04:52:49;;;;;;;17.93;14.57;;;10.20;1.00;;;;;;5055810;28;20214;-60
2021/04/29 04:55:15;;;;;;;14.60;11.87;;;10.20;1.00;;;;;;5055152;28;20196;-61
2021/04/29 04:57:40;;;;;;;14.63;13.10;;;10.50;1.00;;;;;;5055612;28;20188;-60
2021/04/29 05:00:07;;;;;;;15.23;12.53;;;10.30;1.00;;;;;;5055179;28;20191;-60
2021/04/29 05:02:37;;;;;;;17.77;12.52;;;10.30;1.00;;;;;;5055957;28;20256;-61
2021/04/29 05:05:04;;;;;;;14.65;12.30;;;10.10;1.00;;;;;;5055064;28;20179;-60
2021/04/29 05:07:31;;;;;;;13.32;11.40;;;10.00;1.00;;;;;;5056138;28;20214;-61
2021/04/29 05:09:56;;;;;;;14.50;12.38;;;10.30;1.00;;;;;;5055909;28;20196;-60
2021/04/29 05:12:22;;;;;;;13.20;11.90;;;10.40;1.00;;;;;;5056418;28;20177;-60
2021/04/29 05:14:48;;;;;;;15.33;12.67;;;10.30;1.00;;;;;;5054808;28;20192;-61
2021/04/29 05:17:13;;;;;;;14.00;12.50;;;10.20;1.00;;;;;;5054473;28;20184;-61
2021/04/29 05:19:39;;;;;;;13.47;12.07;;;10.30;1.00;;;;;;5055285;28;20209;-61
2021/04/29 05:22:04;;;;;;;16.93;13.23;;;10.50;1.00;;;;;;5055042;28;20662;-60
2021/04/29 05:24:30;;;;;;;14.97;12.83;;;10.60;1.00;;;;;;5054516;28;20188;-61
2021/04/29 05:26:56;;;;;;;17.37;13.07;;;10.80;1.00;;;;;;5055115;28;20599;-61
2021/04/29 05:29:21;;;;;;;15.97;13.07;;;10.80;1.00;;;;;;5054022;28;20254;-61
2021/04/29 05:31:47;;;;;;;16.63;13.30;;;10.70;1.00;;;;;;5055134;28;20620;-60
2021/04/29 05:34:12;;;;;;;14.37;12.93;;;10.50;1.00;;;;;;5054653;28;20173;-61
2021/04/29 05:36:38;;;;;;;14.03;12.57;;;10.40;1.00;;;;;;5053778;28;20621;-61
2021/04/29 05:39:04;;;;;;;13.60;12.20;;;10.50;1.00;;;;;;5055150;28;20189;-61
2021/04/29 05:41:30;;;;;;;15.00;11.75;;;10.50;1.00;;;;;;5054920;28;20556;-61
2021/04/29 05:43:55;;;;;;;13.70;12.30;;;10.60;1.00;;;;;;5054326;28;20177;-61
2021/04/29 05:46:21;;;;;;;18.00;12.37;;;10.40;1.00;;;;;;5054638;28;20181;-60
2021/04/29 05:48:47;;;;;;;16.43;13.13;;;10.20;1.00;;;;;;5054823;28;20627;-61
2021/04/29 05:51:12;;;;;;;13.30;11.90;;;10.10;1.00;;;;;;5054866;28;20633;-61
2021/04/29 05:53:38;;;;;;;14.50;13.10;;;9.90;1.00;;;;;;5054235;28;20899;-61
2021/04/29 05:56:04;;;;;;;16.27;13.03;;;10.00;1.00;;;;;;5053986;28;20246;-61
2021/04/29 05:58:29;;;;;;;20.08;13.68;;;9.90;1.00;;;;;;5054595;28;20184;-61
2021/04/29 06:00:55;;;;;;;15.93;13.03;;;10.00;1.00;;;;;;5054416;28;20238;-61
2021/04/29 06:03:22;;;;;;;15.23;13.30;;;10.00;1.00;;;;;;5054438;28;20238;-61
2021/04/29 06:05:48;;;;;;;13.27;11.88;;;10.00;1.00;;;;;;5054202;28;20180;-61
2021/04/29 06:08:14;;;;;;;14.50;13.00;;;10.00;1.00;;;;;;5053977;28;20262;-61
2021/04/29 06:10:39;;;;;;;15.50;13.50;;;10.00;1.00;;;;;;5054230;28;20586;-61
2021/04/29 06:13:05;;;;;;;19.00;14.43;;;10.00;1.00;;;;;;5053994;28;20177;-61
2021/04/29 06:15:31;;;;;;;18.30;15.10;;;9.80;1.00;;;;;;5053766;28;20180;-61
2021/04/29 06:17:57;;;;;;;16.05;13.25;;;9.90;1.00;;;;;;5054205;28;20185;-61
2021/04/29 06:20:23;;;;;;;16.75;13.73;;;9.80;1.00;;;;;;5054269;28;20226;-61
2021/04/29 06:22:48;;;;;;;14.97;12.87;;;9.80;33.50;;;;;;5054205;28;20593;-61
2021/04/29 06:25:14;;;;;;;19.90;14.13;;;9.80;73.50;;;;;;5053350;28;20505;-61
2021/04/29 06:27:40;;;;;;;17.63;14.60;;;9.80;89.20;;;;;;5053985;28;20544;-61
2021/04/29 06:30:08;;;;;;;19.52;15.15;;;9.70;91.90;;;;;;5053643;28;20248;-61
2021/04/29 06:32:34;;;;;;;20.20;15.20;;;9.60;98.30;;;;;;5053772;28;20643;-61
2021/04/29 06:34:59;;;;;;;20.73;16.05;;;9.50;99.90;;;;;;5053255;28;20192;-61
2021/04/29 06:37:25;;;;;;;20.00;14.90;;;9.50;99.90;;;;;;5054024;28;20195;-61
2021/04/29 06:39:51;;;;;;;19.10;14.73;;;9.50;99.90;;;;;;5054138;28;20177;-61
2021/04/29 06:42:19;;;;;;;17.23;15.32;;;9.40;99.90;;;;;;5054105;28;20188;-60
2021/04/29 06:44:45;;;;;;;19.17;15.63;;;9.60;99.90;;;;;;5051601;28;20188;-61
2021/04/29 06:47:10;;;;;;;21.03;18.13;;;9.50;99.90;;;;;;5049493;28;20280;-61
2021/04/29 06:49:39;;;;;;;23.57;17.20;;;9.50;99.90;;;;;;5051585;28;20544;-59
2021/04/29 06:52:05;;;;;;;18.75;16.70;;;9.50;99.90;;;;;;5050829;28;20611;-61
2021/04/29 06:54:30;;;;;;;19.00;16.17;;;9.60;99.90;;;;;;5032490;28;20264;-61
2021/04/29 06:56:58;;;;;;;19.17;16.07;;;9.60;99.90;;;;;;5050771;28;20185;-61
2021/04/29 06:59:24;;;;;;;20.17;17.52;;;9.70;77.40;;;;;;5051368;28;20239;-62
2021/04/29 07:01:50;;;;;;;23.90;16.63;;;9.70;51.80;;;;;;5052378;28;20652;-61
2021/04/29 07:04:16;;;;;;;21.25;16.42;;;9.60;1.00;;;;;;5052535;28;20487;-64
2021/04/29 07:06:41;;;;;;;18.67;16.50;;;9.70;1.00;;;;;;5053111;28;20346;-64
2021/04/29 07:09:07;;;;;;;20.93;17.10;;;9.70;1.00;;;;;;5048662;28;20200;-64
2021/04/29 07:11:32;;;;;;;18.80;15.63;;;9.80;1.00;;;;;;5054453;28;20169;-62
2021/04/29 07:13:59;;;;;;;19.93;17.00;;;9.80;1.00;;;;;;5053523;28;20673;-63
2021/04/29 07:16:26;;;;;;;19.35;16.27;;;9.70;1.00;;;;;;5052961;28;20254;-63
2021/04/29 07:18:52;;;;;;;21.33;16.80;;;9.80;1.00;;;;;;5053189;28;20485;-62
2021/04/29 07:21:19;;;;;;;20.42;16.40;;;10.00;1.00;;;;;;5048602;28;20181;-63
2021/04/29 07:23:47;;;;;;;18.13;15.18;;;10.10;1.00;;;;;;5032101;28;20185;-63
2021/04/29 07:26:17;;;;;;;18.67;16.20;;;10.10;1.00;;;;;;5049483;28;20177;-65
2021/04/29 07:28:44;;;;;;;19.35;15.75;;;10.10;1.00;;;;;;5052763;28;20247;-65
2021/04/29 07:31:10;;;;;;;16.80;14.40;;;10.20;1.00;;;;;;5052578;28;20216;-65
2021/04/29 07:33:36;;;;;;;23.70;15.05;;;10.20;1.00;;;;;;5052478;28;20184;-66
2021/04/29 07:36:03;;;;;;;18.55;15.10;;;10.40;1.00;;;;;;5051248;28;20172;-66
2021/04/29 07:38:28;;;;;;;17.38;15.48;;;10.80;1.00;;;;;;5047959;28;20517;-65
2021/04/29 07:40:54;;;;;;;16.10;14.40;;;10.90;1.00;;;;;;5032768;28;20181;-66
2021/04/29 07:43:19;;;;;;;17.80;14.80;;;10.50;1.00;;;;;;5046145;28;20268;-65
2021/04/29 07:45:45;;;;;;;19.83;16.70;;;10.60;1.00;;;;;;5052114;28;20189;-65
2021/04/29 07:48:11;;;;;;;20.10;15.60;;;10.60;1.00;;;;;;5053040;28;20305;-64
2021/04/29 07:50:36;;;;;;;17.17;14.87;;;10.60;1.00;;;;;;5052647;28;20195;-66
2021/04/29 07:53:02;;;;;;;17.83;15.60;;;10.50;1.00;;;;;;5052386;28;20176;-65
2021/04/29 07:55:28;;;;;;;18.75;15.60;;;10.60;1.00;;;;;;5051583;28;20191;-64
2021/04/29 07:57:54;;;;;;;21.65;14.88;;;10.50;1.00;;;;;;5052455;28;20564;-65
2021/04/29 08:00:20;;;;;;;19.50;17.30;;;10.60;1.00;;;;;;5056076;28;20611;-65
2021/04/29 08:02:46;;;;;;;19.65;16.50;;;10.90;1.00;;;;;;5056510;28;20226;-63
2021/04/29 08:05:12;;;;;;;17.80;16.00;;;11.20;1.00;;;;;;5055865;28;20184;-64
2021/04/29 08:07:39;;;;;;;17.52;15.60;;;11.30;99.90;;;;;;5056185;28;20208;-66
2021/04/29 08:10:06;;;;;;;17.48;15.57;;;11.60;1.00;;;;;;5056423;28;20228;-66
2021/04/29 08:12:32;;;;;;;21.80;17.08;;;11.70;99.90;;;;;;5055955;28;20184;-66
2021/04/29 08:14:59;;;;;;;17.30;15.43;;;11.80;99.90;;;;;;5055731;28;20181;-66
2021/04/29 08:17:26;;;;;;;20.13;17.55;;;11.90;99.90;;;;;;5056221;28;20329;-66
2021/04/29 08:19:53;;;;;;;21.90;16.77;;;11.50;99.90;;;;;;5055072;28;20271;-66
2021/04/29 08:22:20;;;;;;;21.67;17.85;;;11.60;1.00;;;;;;5055860;28;20190;-66
2021/04/29 08:24:45;;;;;;;18.10;16.17;;;11.60;1.00;;;;;;5055579;28;20259;-66
2021/04/29 08:27:11;;;;;;;19.33;16.53;;;11.50;1.00;;;;;;5056365;28;20358;-66
2021/04/29 08:29:37;;;;;;;19.73;17.40;;;11.40;1.00;;;;;;5052217;28;20177;-66
2021/04/29 08:32:06;;;;;;;18.03;16.20;;;11.40;1.00;;;;;;5043703;28;20181;-67
2021/04/29 08:34:32;;;;;;;17.30;15.57;;;11.70;1.00;;;;;;5044779;28;20240;-67
2021/04/29 08:36:58;;;;;;;18.45;16.55;;;12.40;1.00;;;;;;5035854;28;20189;-68
2021/04/29 08:39:23;;;;;;;18.33;15.90;;;12.70;99.90;;;;;;5051270;28;20493;-64
2021/04/29 08:41:49;;;;;;;17.70;15.73;;;13.10;7.80;;;;;;5062578;28;20282;-63
2021/04/29 08:44:14;;;;;;;20.40;17.10;;;13.10;1.00;;;;;;5075104;28;20528;-63
2021/04/29 08:46:41;;;;;;;17.37;15.40;;;13.10;99.90;;;;;;5064498;28;20189;-62
2021/04/29 08:49:07;;;;;;;17.70;15.88;;;12.00;99.90;;;;;;5034617;28;20177;-63
2021/04/29 08:51:33;;;;;;;18.40;15.97;;;11.60;99.90;;;;;;5036228;28;20187;-63
2021/04/29 08:54:00;;;;;;;18.00;16.10;;;11.80;1.00;;;;;;5034999;28;20185;-64
2021/04/29 08:56:26;;;;;;;19.98;16.67;;;12.00;1.00;;;;;;5049974;28;20516;-62
2021/04/29 08:58:54;;;;;;;16.20;14.50;;;12.10;99.90;;;;;;5055106;28;20187;-62
2021/04/29 09:01:20;;;;;;;19.67;17.70;;;11.50;1.00;;;;;;5055362;28;20751;-66
2021/04/29 09:03:46;;;;;;;16.13;14.40;;;11.70;1.00;;;;;;5049205;28;20174;-65
2021/04/29 09:06:12;;;;;;;19.20;16.83;;;12.20;1.00;;;;;;5034225;28;20444;-62
2021/04/29 09:08:40;;;;;;;19.07;17.10;;;12.40;1.00;;;;;;5035226;28;20214;-65
2021/04/29 09:11:16;;;;;;;18.80;16.90;;;12.30;1.00;;;;;;5035138;28;20423;-67
2021/04/29 09:14:05;;;;;;;18.50;16.50;;;12.70;99.90;;;;;;5034753;28;20235;-65
2021/04/29 09:16:42;;;;;;;19.05;16.60;;;13.00;99.90;;;;;;5045915;28;20528;-65
2021/04/29 09:19:21;;;;;;;20.52;17.25;;;12.70;99.90;;;;;;5055986;28;20214;-65
2021/04/29 09:21:47;;;;;;;19.33;16.08;;;12.70;99.90;;;;;;5054870;28;20675;-64
2021/04/29 09:24:13;;;;;;;22.90;17.97;;;12.70;99.90;;;;;;5054231;28;20181;-64
2021/04/29 09:26:39;;;;;;;19.63;17.73;;;12.70;99.90;;;;;;5055291;28;20526;-65
2021/04/29 09:29:15;;;;;;;19.70;17.05;;;13.00;99.90;;;;;;5055483;28;20255;-65
2021/04/29 09:31:44;;;;;;;20.17;18.17;;;13.50;97.10;;;;;;5035882;28;20182;-64
2021/04/29 09:34:11;;;;;;;20.55;17.85;;;13.20;1.00;;;;;;5033416;28;20241;-65
2021/04/29 09:36:43;;;;;;;20.30;16.92;;;13.50;1.00;;;;;;5035059;28;20179;-65
2021/04/29 09:39:19;;;;;;;20.70;17.38;;;13.70;1.00;;;;;;5050218;28;20503;-63
2021/04/29 09:41:49;;;;;;;21.65;16.83;;;13.40;1.00;;;;;;5054642;28;20249;-63
2021/04/29 09:44:16;;;;;;;22.10;17.95;;;12.50;99.90;;;;;;5054091;28;20173;-63
2021/04/29 09:46:43;;;;;;;20.75;18.55;;;12.70;1.00;;;;;;5054813;28;20561;-64
2021/04/29 09:49:26;;;;;;;21.33;16.58;;;13.10;1.00;;;;;;5054611;28;20173;-64
2021/04/29 09:51:54;;;;;;;19.25;17.15;;;12.80;99.90;;;;;;5052615;28;20191;-63
2021/04/29 09:54:38;;;;;;;19.35;16.77;;;12.90;99.90;;;;;;5051792;28;20181;-63
2021/04/29 09:57:06;;;;;;;20.70;17.20;;;12.80;99.90;;;;;;5052420;28;20199;-64
2021/04/29 09:59:33;;;;;;;24.35;19.30;;;12.70;99.90;;;;;;5054325;28;20201;-63
2021/04/29 10:02:00;;;;;;;20.73;18.30;;;12.40;99.90;;;;;;5054202;28;20199;-63
2021/04/29 10:04:28;;;;;;;22.00;19.27;;;12.70;1.00;;;;;;5053429;28;20502;-64
2021/04/29 10:06:55;;;;;;;20.63;18.50;;;12.70;99.90;;;;;;5070070;28;20196;-63
2021/04/29 10:09:24;;;;;;;22.85;18.02;;;12.40;1.00;;;;;;5074106;28;20252;-61
2021/04/29 10:12:01;;;;;;;21.58;18.58;;;12.00;1.00;;;;;;5074153;28;20237;-62
2021/04/29 10:14:34;;;;;;;20.42;18.17;;;11.80;1.00;;;;;;5062598;28;20281;-61
2021/04/29 10:17:06;;;;;;;20.80;18.00;;;12.00;1.00;;;;;;5054117;28;20238;-62
2021/04/29 10:19:36;;;;;;;21.33;18.30;;;12.30;1.00;;;;;;5052926;28;20181;-63
2021/04/29 10:22:02;;;;;;;23.10;19.25;;;12.60;1.00;;;;;;5052094;28;20188;-63
2021/04/29 10:24:28;;;;;;;24.27;19.90;;;13.10;1.00;;;;;;5053337;28;20181;-62
2021/04/29 10:27:06;;;;;;;19.87;17.63;;;13.30;1.00;;;;;;5053573;28;20206;-64
2021/04/29 10:29:32;;;;;;;21.05;17.73;;;13.30;99.90;;;;;;5053202;28;20210;-64
2021/04/29 10:32:00;;;;;;;24.83;20.05;;;12.70;99.90;;;;;;5052571;28;20184;-64
2021/04/29 10:34:38;;;;;;;22.85;19.75;;;12.40;99.90;;;;;;5053492;28;20184;-64
2021/04/29 10:37:17;;;;;;;20.05;17.90;;;12.10;1.00;;;;;;5053772;28;20184;-67
2021/04/29 10:39:59;;;;;;;22.30;19.55;;;11.90;1.00;;;;;;5033796;28;20180;-65
2021/04/29 10:42:30;;;;;;;21.30;18.98;;;11.60;1.00;;;;;;5033656;28;20578;-65
2021/04/29 10:45:14;;;;;;;22.92;20.10;;;11.10;34.70;;;;;;5033062;28;20184;-66
2021/04/29 10:47:43;;;;;;;22.33;19.27;;;11.50;99.90;;;;;;5034228;28;20571;-67
2021/04/29 10:50:16;;;;;;;23.27;19.65;;;12.00;36.80;;;;;;5033882;28;20521;-65
2021/04/29 10:52:55;;;;;;;23.23;18.85;;;11.80;1.00;;;;;;5041927;28;20684;-66
2021/04/29 10:55:30;;;;;;;23.00;18.40;;;12.00;1.00;;;;;;5052235;28;20231;-68
2021/04/29 10:57:57;;;;;;;23.25;20.75;;;11.60;1.00;;;;;;5053686;28;20192;-67
2021/04/29 11:00:25;;;;;;;22.20;19.80;;;11.40;99.90;;;;;;5052250;28;20213;-66
2021/04/29 11:03:06;;;;;;;20.80;18.70;;;11.60;1.60;;;;;;5051997;28;20192;-65
2021/04/29 11:05:35;;;;;;;22.38;19.73;;;11.70;1.00;;;;;;5051932;28;20185;-66
2021/04/29 11:08:17;;;;;;;21.45;19.20;;;11.40;29.00;;;;;;5052853;28;20322;-65
2021/04/29 11:10:42;;;;;;;25.98;21.17;;;11.80;58.20;;;;;;5053111;28;20180;-65
2021/04/29 11:13:08;;;;;;;21.63;18.40;;;11.70;26.10;;;;;;5052293;28;20245;-65
2021/04/29 11:15:37;;;;;;;23.70;19.93;;;11.70;31.00;;;;;;5052444;28;20177;-66
2021/04/29 11:18:11;;;;;;;23.30;19.17;;;11.90;44.00;;;;;;5052760;28;20438;-61
2021/04/29 11:20:49;;;;;;;22.20;19.80;;;11.50;45.60;;;;;;5052955;28;20509;-65
2021/04/29 11:23:20;;;;;;;22.17;19.08;;;11.60;82.20;;;;;;5052583;28;20177;-65
2021/04/29 11:25:47;;;;;;;24.85;20.42;;;11.40;46.90;;;;;;5052505;28;20206;-64
2021/04/29 11:28:14;;;;;;;23.02;19.20;;;11.20;99.90;;;;;;5052868;28;20272;-62
2021/04/29 11:30:40;;;;;;;24.60;20.08;;;11.30;99.90;;;;;;5052523;28;20181;-61
2021/04/29 11:33:10;;;;;;;32.00;22.25;;;11.40;99.90;;;;;;5051876;28;20185;-63
2021/04/29 11:35:37;;;;;;;26.67;21.90;;;11.50;99.90;;;;;;5052241;28;20582;-65
2021/04/29 11:38:05;;;;;;;23.13;20.48;;;11.60;99.90;;;;;;5045481;28;20181;-66
2021/04/29 11:40:35;;;;;;;24.45;20.48;;;11.40;99.90;;;;;;5031468;28;20182;-66
2021/04/29 11:43:02;;;;;;;25.85;21.88;;;11.30;99.90;;;;;;5032727;28;20181;-65
2021/04/29 11:45:30;;;;;;;25.08;21.23;;;11.40;99.90;;;;;;5032057;28;20183;-65
2021/04/29 11:48:12;;;;;;;25.75;21.92;;;11.60;99.90;;;;;;5032322;28;20549;-64
2021/04/29 11:50:59;;;;;;;25.13;20.38;;;11.50;98.40;;;;;;5032395;28;20174;-65
2021/04/29 11:53:25;;;;;;;23.33;19.73;;;11.40;58.00;;;;;;5032282;28;20186;-62
2021/04/29 11:56:00;;;;;;;22.15;19.75;;;11.10;99.90;;;;;;5041490;28;20188;-62
2021/04/29 11:58:26;;;;;;;24.90;20.73;;;11.00;99.90;;;;;;5051877;28;20195;-61
2021/04/29 12:00:54;;;;;;;27.87;21.90;;;11.10;99.90;;;;;;5052168;28;20172;-62
2021/04/29 12:03:22;;;;;;;26.38;22.33;;;11.50;99.90;;;;;;5051885;28;20892;-64
2021/04/29 12:05:50;;;;;;;29.90;21.42;;;11.70;99.90;;;;;;5052176;28;20263;-63
2021/04/29 12:08:21;;;;;;;26.52;22.08;;;11.90;99.90;;;;;;5052222;28;20246;-63
2021/04/29 12:10:57;;;;;;;24.38;21.65;;;12.00;96.50;;;;;;5052378;28;20219;-63
2021/04/29 12:13:51;;;;;;;26.42;21.65;;;11.70;71.50;;;;;;5052012;28;20177;-62
2021/04/29 12:16:18;;;;;;;27.08;20.08;;;11.60;96.10;;;;;;5051065;28;20272;-63
2021/04/29 12:18:48;;;;;;;23.42;20.25;;;11.30;37.10;;;;;;5049753;28;20172;-63
2021/04/29 12:21:15;;;;;;;25.83;21.52;;;11.50;99.90;;;;;;5050898;28;20256;-63
2021/04/29 12:23:41;;;;;;;26.45;20.60;;;11.60;99.90;;;;;;5052375;28;20173;-62
2021/04/29 12:26:09;;;;;;;28.23;22.15;;;11.60;99.90;;;;;;5051992;28;20238;-63
2021/04/29 12:28:37;;;;;;;29.50;22.52;;;11.60;99.90;;;;;;5052628;28;20212;-64
2021/04/29 12:31:16;;;;;;;28.60;21.50;;;11.80;99.90;;;;;;5036546;28;20184;-63
2021/04/29 12:34:06;;;;;;;24.35;20.10;;;11.80;99.90;;;;;;5032349;28;20178;-63
2021/04/29 12:36:51;;;;;;;23.27;19.50;;;12.00;99.90;;;;;;5032539;28;20170;-64
2021/04/29 12:39:25;;;;;;;23.25;18.75;;;11.70;38.90;;;;;;5031779;28;20190;-63